KCBK/CBK METAR and TAF weather

Enter ICAO airport designator
Station Type Date Time Source
KCBK METAR 2022/01/26 19:55 UTC NOAA

KCBK 261955Z AUTO 21014KT 10SM CLR M04/M08 A3006 RMK AO2 T10431078


Station Type Date Time Source
KCBK Decoded METAR 2022/01/26 19:55 UTC NOAA

Station name not available
Jan 26, 2022 - 02:55 PM EST / 2022.01.26 1955 UTC
Wind: from the SSW (210 degrees) at 16 MPH (14 KT):0
Visibility: 10 mile(s):0
Sky conditions: clear
Temperature: 24.3 F (-4.3 C)
Windchill: 12 F (-11 C):1
Dew Point: 18.0 F (-7.8 C)
Relative Humidity: 76%
Pressure (altimeter): 30.06 in. Hg (1017 hPa)
ob: KCBK 261955Z AUTO 21014KT 10SM CLR M04/M08 A3006 RMK AO2 T10431078
cycle: 20

Station Type Date Time Source
KCBK TAF UTC NOAA

Error!

Example: see airport list